Time;durP1;ratioP1;P1;durP2;ratioP2;P2;SDS_P1;SDS_P2;PMS_P1;PMS_P2;Temp;Humidity;BMP_temperature;BMP_pressure;BME280_temperature;BME280_humidity;BME280_pressure;Samples;Min_cycle;Max_cycle;Signal;HPM_P1;HPM_P2
2023/05/01 00:02:21;;;;;;;;;;;9.90;99.90;;;;;;4954765;28;19973;-71
2023/05/01 00:04:46;;;;;;;;;;;9.90;99.90;;;;;;4951866;28;19915;-71
2023/05/01 00:07:12;;;;;;;;;;;9.90;99.90;;;;;;4951888;28;19922;-72
2023/05/01 00:09:38;;;;;;;;;;;9.90;99.90;;;;;;4951337;28;19914;-71
2023/05/01 00:12:03;;;;;;;;;;;9.90;99.90;;;;;;4952663;28;19929;-71
2023/05/01 00:14:29;;;;;;;;;;;9.90;99.90;;;;;;4952458;28;19914;-71
2023/05/01 00:16:55;;;;;;;;;;;9.90;99.90;;;;;;4951183;28;19970;-71
2023/05/01 00:19:20;;;;;;;;;;;9.80;99.90;;;;;;4954830;28;19994;-71
2023/05/01 00:21:47;;;;;;;;;;;9.80;99.90;;;;;;4952424;28;20105;-72
2023/05/01 00:24:13;;;;;;;;;;;9.90;99.90;;;;;;4951213;28;19919;-72
2023/05/01 00:26:38;;;;;;;;;;;9.90;99.90;;;;;;4954358;28;20037;-72
2023/05/01 00:29:04;;;;;;;;;;;9.80;99.90;;;;;;4953415;28;20425;-71
2023/05/01 00:31:30;;;;;;;;;;;9.80;99.90;;;;;;4948809;28;19910;-71
2023/05/01 00:33:56;;;;;;;;;;;9.80;99.90;;;;;;4951974;28;19914;-71
2023/05/01 00:36:21;;;;;;;;;;;9.80;99.90;;;;;;4952617;28;20377;-71
2023/05/01 00:38:47;;;;;;;;;;;9.80;99.90;;;;;;4953283;28;20278;-72
2023/05/01 00:41:13;;;;;;;;;;;9.80;99.90;;;;;;4950717;28;19914;-71
2023/05/01 00:43:38;;;;;;;;;;;9.70;99.90;;;;;;4953770;28;20005;-71
2023/05/01 00:46:05;;;;;;;;;;;9.70;99.90;;;;;;4950461;28;19910;-71
2023/05/01 00:48:30;;;;;;;;;;;9.60;99.90;;;;;;4936386;28;19914;-71
2023/05/01 00:50:57;;;;;;;;;;;9.70;99.90;;;;;;4966144;28;20412;-71
2023/05/01 00:53:23;;;;;;;;;;;9.60;99.90;;;;;;4952388;28;19915;-71
2023/05/01 00:55:49;;;;;;;;;;;9.60;99.90;;;;;;4954646;28;20508;-71
2023/05/01 00:58:16;;;;;;;;;;;9.60;99.90;;;;;;4953967;28;20592;-71
2023/05/01 01:00:42;;;;;;;;;;;9.50;99.90;;;;;;4952338;28;19918;-71
2023/05/01 01:03:07;;;;;;;;;;;9.60;99.90;;;;;;4949985;28;20076;-71
2023/05/01 01:05:35;;;;;;;;;;;9.50;99.90;;;;;;4953823;28;20307;-71
2023/05/01 01:08:27;;;;;;;;;;;9.50;99.90;;;;;;4953147;28;19907;-71
2023/05/01 01:10:59;;;;;;;;;;;9.50;99.90;;;;;;4950644;28;19921;-71
2023/05/01 01:13:35;;;;;;;;;;;9.50;99.90;;;;;;4951352;28;19914;-71
2023/05/01 01:16:12;;;;;;;;;;;9.50;99.90;;;;;;4951016;28;20282;-70
2023/05/01 01:18:53;;;;;;;;;;;9.50;99.90;;;;;;4964668;28;19914;-71
2023/05/01 01:21:32;;;;;;;;;;;9.40;99.90;;;;;;4951026;28;19965;-71
2023/05/01 01:24:17;;;;;;;;;;;9.40;99.90;;;;;;4952649;28;19910;-71
2023/05/01 01:27:12;;;;;;;;;;;9.40;99.90;;;;;;4952943;28;20682;-71
2023/05/01 01:29:57;;;;;;;;;;;9.40;99.90;;;;;;4951296;28;19914;-71
2023/05/01 01:32:25;;;;;;;;;;;9.30;99.90;;;;;;4949157;28;20413;-71
2023/05/01 01:34:54;;;;;;;;;;;9.30;99.90;;;;;;4947447;28;19914;-71
2023/05/01 01:37:21;;;;;;;;;;;9.30;99.90;;;;;;4946290;28;19936;-71
2023/05/01 01:40:05;;;;;;;;;;;9.30;99.90;;;;;;4944517;28;19950;-70
2023/05/01 01:42:40;;;;;;;;;;;9.30;99.90;;;;;;4951420;28;19914;-71
2023/05/01 01:45:10;;;;;;;;;;;9.20;99.90;;;;;;4951306;28;19921;-71
2023/05/01 01:47:39;;;;;;;;;;;9.20;99.90;;;;;;4949387;28;20017;-73
2023/05/01 01:50:06;;;;;;;;;;;9.20;99.90;;;;;;4949540;28;19933;-71
2023/05/01 01:52:32;;;;;;;;;;;9.20;99.90;;;;;;4949761;28;19950;-71
2023/05/01 01:55:01;;;;;;;;;;;9.10;99.90;;;;;;4949222;28;19965;-71
2023/05/01 01:57:27;;;;;;;;;;;9.20;99.90;;;;;;4948712;28;20385;-72
2023/05/01 01:59:54;;;;;;;;;;;9.10;99.90;;;;;;4954858;28;19910;-72
2023/05/01 02:02:20;;;;;;;;;;;9.10;99.90;;;;;;4952803;28;19911;-72
2023/05/01 02:04:47;;;;;;;;;;;9.00;99.90;;;;;;4952846;28;19936;-71
2023/05/01 02:07:13;;;;;;;;;;;9.00;99.90;;;;;;4950101;28;20378;-71
2023/05/01 02:09:40;;;;;;;;;;;9.00;99.90;;;;;;4952064;28;19938;-71
2023/05/01 02:12:07;;;;;;;;;;;9.00;99.90;;;;;;4951570;28;19911;-71
2023/05/01 02:14:33;;;;;;;;;;;9.00;99.90;;;;;;4952592;28;20501;-71
2023/05/01 02:16:58;;;;;;;;;;;9.00;99.90;;;;;;4955312;28;19966;-72
2023/05/01 02:19:24;;;;;;;;;;;9.00;99.90;;;;;;4954209;28;19925;-72
2023/05/01 02:21:51;;;;;;;;;;;9.00;99.90;;;;;;4952695;28;19933;-71
2023/05/01 02:24:18;;;;;;;;;;;9.00;99.90;;;;;;4951916;28;19944;-72
2023/05/01 02:26:46;;;;;;;;;;;8.90;99.90;;;;;;4948352;28;19918;-71
2023/05/01 02:29:12;;;;;;;;;;;8.80;99.90;;;;;;4949081;28;19963;-72
2023/05/01 02:31:37;;;;;;;;;;;8.80;99.90;;;;;;4954180;28;19925;-72
2023/05/01 02:34:03;;;;;;;;;;;8.80;99.90;;;;;;4947810;28;19951;-73
2023/05/01 02:36:28;;;;;;;;;;;8.70;99.90;;;;;;4948103;28;19922;-71
2023/05/01 02:38:54;;;;;;;;;;;8.70;99.90;;;;;;4950180;28;19965;-71
2023/05/01 02:41:21;;;;;;;;;;;8.70;99.90;;;;;;4951471;28;20374;-71
2023/05/01 02:43:52;;;;;;;;;;;8.70;99.90;;;;;;4946771;28;19918;-71
2023/05/01 02:46:19;;;;;;;;;;;8.60;99.90;;;;;;4943761;28;19910;-72
2023/05/01 02:48:45;;;;;;;;;;;8.60;99.90;;;;;;4948006;28;19961;-71
2023/05/01 02:51:11;;;;;;;;;;;8.70;99.90;;;;;;4947861;28;19946;-72
2023/05/01 02:53:39;;;;;;;;;;;8.70;99.90;;;;;;4950673;28;19921;-71
2023/05/01 02:56:06;;;;;;;;;;;8.70;99.90;;;;;;4950836;28;20013;-71
2023/05/01 02:58:33;;;;;;;;;;;8.60;99.90;;;;;;4948896;28;19922;-71
2023/05/01 03:00:58;;;;;;;;;;;8.60;99.90;;;;;;4944617;28;19932;-72
2023/05/01 03:03:24;;;;;;;;;;;8.60;99.90;;;;;;4946708;28;19984;-71
2023/05/01 03:05:50;;;;;;;;;;;8.50;99.90;;;;;;4956818;28;19921;-72
2023/05/01 03:08:16;;;;;;;;;;;8.60;99.90;;;;;;4946923;28;19918;-71
2023/05/01 03:10:42;;;;;;;;;;;8.60;99.90;;;;;;4952627;28;19918;-71
2023/05/01 03:13:09;;;;;;;;;;;8.50;99.90;;;;;;4950329;28;19917;-71
2023/05/01 03:15:35;;;;;;;;;;;8.50;99.90;;;;;;4950122;28;20438;-73
2023/05/01 03:18:01;;;;;;;;;;;8.50;99.90;;;;;;4948366;28;19914;-72
2023/05/01 03:20:27;;;;;;;;;;;8.60;99.90;;;;;;4945745;28;19914;-71
2023/05/01 03:22:52;;;;;;;;;;;8.50;99.90;;;;;;4949553;28;20337;-71
2023/05/01 03:25:18;;;;;;;;;;;8.50;99.90;;;;;;4932087;28;20205;-71
2023/05/01 03:27:43;;;;;;;;;;;8.50;99.90;;;;;;4948469;28;19919;-71
2023/05/01 03:30:09;;;;;;;;;;;8.50;99.90;;;;;;4950531;28;19922;-72
2023/05/01 03:32:35;;;;;;;;;;;8.50;99.90;;;;;;4945067;28;19918;-72
2023/05/01 03:35:01;;;;;;;;;;;8.40;99.90;;;;;;4946789;28;20290;-71
2023/05/01 03:37:27;;;;;;;;;;;8.40;99.90;;;;;;4950148;28;19910;-72
2023/05/01 03:39:53;;;;;;;;;;;8.40;99.90;;;;;;4947847;28;20271;-71
2023/05/01 03:42:18;;;;;;;;;;;8.40;99.90;;;;;;4948512;28;19917;-71
2023/05/01 03:44:44;;;;;;;;;;;8.40;99.90;;;;;;4948368;28;20286;-71
2023/05/01 03:47:09;;;;;;;;;;;8.30;99.90;;;;;;4944346;28;19915;-71
2023/05/01 03:49:35;;;;;;;;;;;8.30;99.90;;;;;;4949390;28;20486;-71
2023/05/01 03:52:01;;;;;;;;;;;8.20;99.90;;;;;;4947334;28;20398;-71
2023/05/01 03:54:26;;;;;;;;;;;8.30;99.90;;;;;;4947177;28;20066;-72
2023/05/01 03:56:52;;;;;;;;;;;8.20;99.90;;;;;;4946912;28;19918;-72
2023/05/01 03:59:17;;;;;;;;;;;8.20;99.90;;;;;;4945125;28;20373;-72
2023/05/01 04:01:43;;;;;;;;;;;8.20;99.90;;;;;;4949811;28;20278;-72
2023/05/01 04:04:09;;;;;;;;;;;8.30;99.90;;;;;;4961146;28;19917;-72
2023/05/01 04:06:35;;;;;;;;;;;8.30;99.90;;;;;;4951432;28;19910;-71
2023/05/01 04:09:01;;;;;;;;;;;8.30;99.90;;;;;;4949236;28;19911;-72
2023/05/01 04:11:27;;;;;;;;;;;8.30;99.90;;;;;;4948261;28;20321;-71
2023/05/01 04:13:53;;;;;;;;;;;8.30;99.90;;;;;;4926950;28;19941;-72
2023/05/01 04:16:45;;;;;;;;;;;8.20;99.90;;;;;;4934144;28;19910;-71
2023/05/01 04:19:11;;;;;;;;;;;8.20;99.90;;;;;;4931978;28;20100;-71
2023/05/01 04:21:36;;;;;;;;;;;8.30;99.90;;;;;;4947703;28;19911;-71
2023/05/01 04:24:02;;;;;;;;;;;8.30;99.90;;;;;;4948466;28;19916;-71
2023/05/01 04:26:28;;;;;;;;;;;8.40;99.90;;;;;;4947642;28;19915;-71
2023/05/01 04:28:53;;;;;;;;;;;8.40;99.90;;;;;;4947088;28;20371;-72
2023/05/01 04:31:19;;;;;;;;;;;8.40;99.90;;;;;;4948267;28;20286;-72
2023/05/01 04:33:45;;;;;;;;;;;8.40;99.90;;;;;;4945520;28;19934;-71
2023/05/01 04:36:12;;;;;;;;;;;8.40;99.90;;;;;;4946002;28;19914;-71
2023/05/01 04:38:38;;;;;;;;;;;8.50;99.90;;;;;;4947070;28;19910;-71
2023/05/01 04:41:04;;;;;;;;;;;8.50;99.90;;;;;;4962836;28;19914;-71
2023/05/01 04:43:30;;;;;;;;;;;8.50;99.90;;;;;;4950717;28;19915;-71
2023/05/01 04:45:56;;;;;;;;;;;8.50;99.90;;;;;;4949516;28;20437;-71
2023/05/01 04:48:22;;;;;;;;;;;8.50;99.90;;;;;;4948562;28;20418;-71
2023/05/01 04:50:48;;;;;;;;;;;8.60;99.90;;;;;;4946954;28;20189;-71
2023/05/01 04:53:14;;;;;;;;;;;8.60;99.90;;;;;;4951210;28;19918;-71
2023/05/01 04:55:39;;;;;;;;;;;8.60;99.90;;;;;;4951494;28;20402;-71
2023/05/01 04:58:05;;;;;;;;;;;8.60;99.90;;;;;;4949370;28;19922;-71
2023/05/01 05:00:31;;;;;;;;;;;8.60;99.90;;;;;;4946414;28;19966;-72
2023/05/01 05:02:56;;;;;;;;;;;8.70;99.90;;;;;;4951752;28;19960;-72
2023/05/01 05:05:22;;;;;;;;;;;8.70;99.90;;;;;;4950066;28;19910;-71
2023/05/01 05:07:47;;;;;;;;;;;8.70;99.90;;;;;;4936123;28;19910;-71
2023/05/01 05:10:13;;;;;;;;;;;8.80;99.90;;;;;;4949050;28;19915;-72
2023/05/01 05:12:40;;;;;;;;;;;8.70;99.90;;;;;;4950889;28;20442;-70
2023/05/01 05:15:06;;;;;;;;;;;8.80;99.90;;;;;;4950023;28;19922;-71
2023/05/01 05:17:31;;;;;;;;;;;8.80;99.90;;;;;;4950349;28;20272;-71
2023/05/01 05:19:57;;;;;;;;;;;8.90;99.90;;;;;;4949620;28;19990;-73
2023/05/01 05:22:24;;;;;;;;;;;8.90;99.90;;;;;;4954680;28;19916;-71
2023/05/01 05:24:54;;;;;;;;;;;9.00;99.90;;;;;;4953667;28;19911;-72
2023/05/01 05:27:20;;;;;;;;;;;9.00;99.90;;;;;;4951443;28;19914;-72
2023/05/01 05:29:45;;;;;;;;;;;9.00;99.90;;;;;;4952902;28;19910;-72
2023/05/01 05:32:12;;;;;;;;;;;9.00;99.90;;;;;;4935708;29;19977;-72
2023/05/01 05:34:38;;;;;;;;;;;9.00;99.90;;;;;;4951293;28;19918;-72
2023/05/01 05:37:03;;;;;;;;;;;9.00;99.90;;;;;;4951837;28;20170;-71
2023/05/01 05:39:30;;;;;;;;;;;9.00;99.90;;;;;;4950445;28;19924;-72
2023/05/01 05:41:56;;;;;;;;;;;9.00;99.90;;;;;;4934910;28;19918;-72
2023/05/01 05:44:21;;;;;;;;;;;9.00;99.90;;;;;;4949400;28;19926;-73
2023/05/01 05:46:47;;;;;;;;;;;9.00;99.90;;;;;;4951285;28;19936;-71
2023/05/01 05:49:13;;;;;;;;;;;9.00;99.90;;;;;;4934711;28;19993;-72
2023/05/01 05:51:38;;;;;;;;;;;9.00;99.90;;;;;;4960674;28;19918;-72
2023/05/01 05:54:04;;;;;;;;;;;9.10;99.90;;;;;;4948859;28;19930;-73
2023/05/01 05:56:30;;;;;;;;;;;9.10;99.90;;;;;;4943415;28;19914;-72
2023/05/01 05:58:55;;;;;;;;;;;9.10;99.90;;;;;;4946178;28;19915;-71
2023/05/01 06:01:21;;;;;;;;;;;9.20;99.90;;;;;;4954249;28;19938;-72
2023/05/01 06:03:47;;;;;;;;;;;9.20;99.90;;;;;;4952717;28;19921;-71
2023/05/01 06:06:12;;;;;;;;;;;9.20;99.90;;;;;;4939734;29;19906;-72
2023/05/01 06:08:38;;;;;;;;;;;9.40;99.90;;;;;;4953152;28;19922;-72
2023/05/01 06:11:04;;;;;;;;;;;9.30;99.90;;;;;;4951795;28;19918;-72
2023/05/01 06:13:29;;;;;;;;;;;9.40;99.90;;;;;;4948617;28;19925;-72
2023/05/01 06:15:56;;;;;;;;;;;9.40;99.90;;;;;;4950135;28;19945;-72
2023/05/01 06:18:21;;;;;;;;;;;9.50;99.90;;;;;;4951458;28;19914;-71
2023/05/01 06:20:47;;;;;;;;;;;9.50;99.90;;;;;;4952655;28;19914;-71
2023/05/01 06:23:12;;;;;;;;;;;9.60;99.90;;;;;;4935352;28;19933;-72
2023/05/01 06:25:38;;;;;;;;;;;9.70;99.90;;;;;;4961930;28;21745;-72
2023/05/01 06:28:04;;;;;;;;;;;9.70;99.90;;;;;;4945302;28;20531;-71
2023/05/01 06:30:30;;;;;;;;;;;9.80;99.90;;;;;;4951705;28;19914;-72
2023/05/01 06:32:55;;;;;;;;;;;9.70;99.90;;;;;;4950538;28;20326;-71
2023/05/01 06:35:21;;;;;;;;;;;9.80;99.80;;;;;;4949584;28;19926;-72
2023/05/01 06:37:46;;;;;;;;;;;9.80;99.80;;;;;;4949490;28;19914;-71
2023/05/01 06:40:12;;;;;;;;;;;9.90;99.80;;;;;;4953787;28;19989;-71
2023/05/01 06:42:38;;;;;;;;;;;9.90;99.80;;;;;;4949837;28;19962;-71
2023/05/01 06:45:07;;;;;;;;;;;10.00;99.50;;;;;;4949180;28;19914;-74
2023/05/01 06:47:35;;;;;;;;;;;10.00;99.50;;;;;;4948570;28;19918;-72
2023/05/01 06:50:01;;;;;;;;;;;10.40;99.90;;;;;;4948654;28;19965;-71
2023/05/01 06:52:27;;;;;;;;;;;10.40;99.30;;;;;;4951353;28;19949;-72
2023/05/01 06:54:52;;;;;;;;;;;10.30;99.10;;;;;;4942944;28;20053;-71
2023/05/01 06:57:18;;;;;;;;;;;10.40;99.00;;;;;;4947627;28;19936;-71
2023/05/01 06:59:44;;;;;;;;;;;10.40;98.90;;;;;;4952933;28;19919;-72
2023/05/01 07:02:10;;;;;;;;;;;10.40;99.00;;;;;;4938723;28;19914;-73
2023/05/01 07:04:35;;;;;;;;;;;10.40;98.60;;;;;;4943386;28;20401;-71
2023/05/01 07:07:02;;;;;;;;;;;10.50;98.50;;;;;;4948962;28;20004;-71
2023/05/01 07:09:27;;;;;;;;;;;10.50;98.30;;;;;;4948332;28;20354;-71
2023/05/01 07:11:55;;;;;;;;;;;10.50;98.20;;;;;;4940406;28;19914;-71
2023/05/01 07:14:21;;;;;;;;;;;10.50;98.10;;;;;;4939896;28;19923;-71
2023/05/01 07:16:47;;;;;;;;;;;10.60;98.20;;;;;;4946119;28;20339;-71
2023/05/01 07:19:12;;;;;;;;;;;10.70;98.60;;;;;;4938967;28;19918;-72
2023/05/01 07:21:39;;;;;;;;;;;10.70;98.30;;;;;;4947983;28;19910;-71
2023/05/01 07:24:04;;;;;;;;;;;10.80;98.00;;;;;;4944764;28;19925;-70
2023/05/01 07:26:30;;;;;;;;;;;10.80;97.70;;;;;;4950435;28;19910;-70
2023/05/01 07:28:56;;;;;;;;;;;10.90;97.60;;;;;;4946597;28;19919;-71
2023/05/01 07:31:21;;;;;;;;;;;10.90;97.50;;;;;;4947528;28;20626;-71
2023/05/01 07:33:47;;;;;;;;;;;10.90;97.40;;;;;;4945192;28;19946;-71
2023/05/01 07:36:13;;;;;;;;;;;11.00;97.30;;;;;;4947971;28;19921;-71
2023/05/01 07:38:41;;;;;;;;;;;11.00;97.30;;;;;;4947881;28;19911;-71
2023/05/01 07:41:07;;;;;;;;;;;11.00;97.20;;;;;;4947994;28;19997;-71
2023/05/01 07:43:33;;;;;;;;;;;11.10;97.10;;;;;;4964933;28;19951;-72
2023/05/01 07:45:59;;;;;;;;;;;11.10;97.30;;;;;;4950315;28;19911;-73
2023/05/01 07:48:26;;;;;;;;;;;11.20;97.30;;;;;;4953508;28;19914;-76
2023/05/01 07:50:51;;;;;;;;;;;11.20;97.20;;;;;;4959202;28;20443;-72
2023/05/01 07:53:17;;;;;;;;;;;11.30;96.70;;;;;;4945950;28;20023;-72
2023/05/01 07:55:43;;;;;;;;;;;11.30;96.70;;;;;;4949281;28;20295;-72
2023/05/01 07:58:09;;;;;;;;;;;11.40;97.00;;;;;;4947829;28;19962;-71
2023/05/01 08:00:34;;;;;;;;;;;11.40;96.40;;;;;;4947992;28;20552;-72
2023/05/01 08:03:00;;;;;;;;;;;11.50;96.00;;;;;;4949832;28;19946;-72
2023/05/01 08:05:26;;;;;;;;;;;11.50;96.30;;;;;;4949206;28;20248;-71
2023/05/01 08:07:52;;;;;;;;;;;11.50;96.30;;;;;;4947567;28;19970;-72
2023/05/01 08:10:17;;;;;;;;;;;11.60;95.80;;;;;;4946150;28;19919;-72
2023/05/01 08:12:43;;;;;;;;;;;11.60;95.70;;;;;;4945520;28;19914;-72
2023/05/01 08:15:08;;;;;;;;;;;11.60;95.50;;;;;;4948723;28;19930;-71
2023/05/01 08:17:35;;;;;;;;;;;11.70;97.50;;;;;;4952823;28;20346;-72
2023/05/01 08:20:00;;;;;;;;;;;11.90;95.90;;;;;;4952511;28;19964;-73
2023/05/01 08:22:26;;;;;;;;;;;11.90;95.50;;;;;;4933549;28;20362;-72
2023/05/01 08:24:52;;;;;;;;;;;11.90;95.20;;;;;;4951603;28;19977;-72
2023/05/01 08:27:18;;;;;;;;;;;12.00;95.20;;;;;;4951229;28;19918;-72
2023/05/01 08:29:44;;;;;;;;;;;12.00;94.60;;;;;;4952231;28;19910;-73
2023/05/01 08:32:10;;;;;;;;;;;12.00;94.70;;;;;;4965183;28;19914;-73
2023/05/01 08:34:36;;;;;;;;;;;12.00;94.60;;;;;;4968037;28;19925;-73
2023/05/01 08:37:01;;;;;;;;;;;12.00;94.50;;;;;;4952618;28;19910;-73
2023/05/01 08:39:27;;;;;;;;;;;12.00;94.40;;;;;;4954180;28;19929;-73
2023/05/01 08:41:53;;;;;;;;;;;12.10;94.70;;;;;;4969220;28;19958;-71
2023/05/01 08:44:19;;;;;;;;;;;12.20;94.40;;;;;;4952700;28;19921;-71
2023/05/01 08:46:59;;;;;;;;;;;12.30;94.50;;;;;;4948640;28;19918;-71
2023/05/01 08:49:26;;;;;;;;;;;12.30;94.60;;;;;;4951541;28;19915;-71
2023/05/01 08:51:52;;;;;;;;;;;12.50;94.50;;;;;;4953684;28;19917;-71
2023/05/01 08:54:19;;;;;;;;;;;12.50;94.20;;;;;;4950335;28;20295;-71
2023/05/01 08:56:45;;;;;;;;;;;12.60;94.70;;;;;;4951496;28;19964;-71
2023/05/01 08:59:13;;;;;;;;;;;12.70;94.40;;;;;;4952580;28;19915;-72
2023/05/01 09:01:39;;;;;;;;;;;12.70;94.10;;;;;;4952505;28;19910;-72
2023/05/01 09:04:07;;;;;;;;;;;12.80;93.40;;;;;;4951655;28;20373;-72
2023/05/01 09:06:33;;;;;;;;;;;12.90;93.60;;;;;;4954274;28;19976;-69
2023/05/01 09:08:58;;;;;;;;;;;12.90;93.20;;;;;;4952717;28;19910;-70
2023/05/01 09:11:25;;;;;;;;;;;13.00;92.70;;;;;;4967100;28;19910;-70
2023/05/01 09:13:51;;;;;;;;;;;13.10;92.40;;;;;;4952176;28;19922;-71
2023/05/01 09:16:17;;;;;;;;;;;13.10;92.60;;;;;;4949554;28;20009;-70
2023/05/01 09:18:42;;;;;;;;;;;13.10;91.80;;;;;;4949603;28;20013;-68
2023/05/01 09:21:09;;;;;;;;;;;13.20;91.50;;;;;;4954017;28;20326;-68
2023/05/01 09:23:36;;;;;;;;;;;13.30;91.60;;;;;;4954009;28;19937;-69
2023/05/01 09:26:05;;;;;;;;;;;13.40;91.80;;;;;;4949446;28;20417;-70
2023/05/01 09:28:44;;;;;;;;;;;13.50;91.00;;;;;;4946514;28;20406;-72
2023/05/01 09:31:31;;;;;;;;;;;13.60;91.00;;;;;;4946897;28;20555;-68
2023/05/01 09:34:00;;;;;;;;;;;13.70;90.80;;;;;;4944271;28;19922;-68
2023/05/01 09:36:27;;;;;;;;;;;13.80;90.50;;;;;;4950104;28;19986;-70
2023/05/01 09:38:53;;;;;;;;;;;13.80;90.10;;;;;;4949973;28;20282;-70
2023/05/01 09:41:21;;;;;;;;;;;13.90;88.80;;;;;;4951405;28;19940;-69
2023/05/01 09:43:51;;;;;;;;;;;13.90;89.50;;;;;;4952102;28;19937;-70
2023/05/01 09:46:16;;;;;;;;;;;14.00;88.60;;;;;;4956860;28;19910;-70
2023/05/01 09:48:55;;;;;;;;;;;14.10;88.00;;;;;;4947898;28;19921;-71
2023/05/01 09:51:29;;;;;;;;;;;14.30;87.70;;;;;;4951147;28;20367;-69
2023/05/01 09:53:56;;;;;;;;;;;14.30;85.00;;;;;;4933771;28;19918;-71
2023/05/01 09:56:22;;;;;;;;;;;14.40;84.00;;;;;;4950059;28;20520;-71
2023/05/01 09:58:51;;;;;;;;;;;14.40;84.20;;;;;;4954831;28;19910;-71
2023/05/01 10:01:17;;;;;;;;;;;14.50;82.20;;;;;;4949915;28;19917;-69
2023/05/01 10:03:44;;;;;;;;;;;14.70;82.50;;;;;;4946673;28;19914;-71
2023/05/01 10:06:09;;;;;;;;;;;14.80;82.60;;;;;;4951378;28;19910;-70
2023/05/01 10:08:48;;;;;;;;;;;14.90;83.20;;;;;;4953368;28;20083;-71
2023/05/01 10:11:14;;;;;;;;;;;14.90;81.20;;;;;;4953019;28;19913;-70
2023/05/01 10:13:39;;;;;;;;;;;14.90;81.50;;;;;;4949931;28;19925;-72
2023/05/01 10:16:07;;;;;;;;;;;14.90;80.50;;;;;;4949888;28;19921;-70
2023/05/01 10:18:33;;;;;;;;;;;15.00;80.80;;;;;;4949452;28;19932;-71
2023/05/01 10:20:59;;;;;;;;;;;15.10;79.00;;;;;;4946327;28;19989;-70
2023/05/01 10:23:25;;;;;;;;;;;15.00;79.20;;;;;;4949098;28;19914;-71
2023/05/01 10:25:51;;;;;;;;;;;15.10;78.90;;;;;;4952361;28;19993;-72
2023/05/01 10:28:19;;;;;;;;;;;15.20;79.50;;;;;;4952955;28;19914;-70
2023/05/01 10:30:45;;;;;;;;;;;15.30;78.20;;;;;;4947506;28;19910;-71
2023/05/01 10:33:12;;;;;;;;;;;15.20;78.60;;;;;;4949269;28;19910;-70
2023/05/01 10:35:39;;;;;;;;;;;15.30;78.00;;;;;;4951862;28;20010;-69
2023/05/01 10:38:06;;;;;;;;;;;15.40;76.40;;;;;;4948461;28;19914;-71
2023/05/01 10:40:38;;;;;;;;;;;15.50;77.00;;;;;;4950393;28;19914;-69
2023/05/01 10:43:31;;;;;;;;;;;15.60;77.20;;;;;;4951622;28;20382;-68
2023/05/01 10:46:06;;;;;;;;;;;15.60;75.90;;;;;;4952361;28;19946;-71
2023/05/01 10:48:44;;;;;;;;;;;15.80;76.30;;;;;;4953538;28;19997;-70
2023/05/01 10:51:10;;;;;;;;;;;16.00;76.80;;;;;;4952813;28;19910;-69
2023/05/01 10:53:37;;;;;;;;;;;16.00;73.70;;;;;;4947252;28;19925;-73
2023/05/01 10:56:04;;;;;;;;;;;16.10;72.30;;;;;;4950550;28;19910;-70
2023/05/01 10:58:37;;;;;;;;;;;16.20;72.20;;;;;;4952227;28;19918;-71
2023/05/01 11:01:21;;;;;;;;;;;16.40;71.80;;;;;;4952446;28;20001;-71
2023/05/01 11:03:47;;;;;;;;;;;16.60;72.20;;;;;;4962861;28;19998;-71
2023/05/01 11:06:13;;;;;;;;;;;16.80;72.70;;;;;;4950917;28;20005;-70
2023/05/01 11:08:38;;;;;;;;;;;17.00;70.00;;;;;;4953506;28;19914;-69
2023/05/01 11:11:22;;;;;;;;;;;17.20;68.40;;;;;;4947132;28;19915;-71
2023/05/01 11:13:57;;;;;;;;;;;17.70;66.50;;;;;;4950575;28;19941;-71
2023/05/01 11:16:41;;;;;;;;;;;18.80;64.80;;;;;;4951504;28;20425;-69
2023/05/01 11:19:08;;;;;;;;;;;19.70;60.50;;;;;;4951718;28;20008;-71
2023/05/01 11:21:35;;;;;;;;;;;20.30;59.00;;;;;;4967136;28;19917;-72
2023/05/01 11:24:07;;;;;;;;;;;20.70;56.70;;;;;;4931789;28;20448;-70
2023/05/01 11:26:37;;;;;;;;;;;21.30;55.50;;;;;;4942844;28;20306;-72
2023/05/01 11:29:05;;;;;;;;;;;21.70;55.20;;;;;;4948853;28;19914;-70
2023/05/01 11:31:31;;;;;;;;;;;21.70;52.50;;;;;;4946910;28;19914;-71
2023/05/01 11:34:00;;;;;;;;;;;22.50;51.60;;;;;;4948224;28;20673;-70
2023/05/01 11:36:26;;;;;;;;;;;23.60;50.50;;;;;;4948063;28;19911;-70
2023/05/01 11:38:52;;;;;;;;;;;24.20;49.20;;;;;;4951593;28;19925;-72
2023/05/01 11:41:19;;;;;;;;;;;24.40;47.10;;;;;;4946058;28;20346;-71
2023/05/01 11:43:52;;;;;;;;;;;24.70;46.80;;;;;;4948737;28;19914;-70
2023/05/01 11:46:26;;;;;;;;;;;24.20;45.10;;;;;;4951630;28;19910;-72
2023/05/01 11:48:55;;;;;;;;;;;24.20;46.50;;;;;;4947317;28;19921;-73
2023/05/01 11:51:21;;;;;;;;;;;24.00;47.30;;;;;;4960891;28;19966;-70
2023/05/01 11:54:00;;;;;;;;;;;24.00;45.40;;;;;;4947358;28;19925;-70
2023/05/01 11:56:26;;;;;;;;;;;24.00;45.80;;;;;;4947736;28;19946;-71
2023/05/01 11:58:55;;;;;;;;;;;23.50;47.00;;;;;;4949126;28;20737;-69
2023/05/01 12:01:20;;;;;;;;;;;23.50;46.50;;;;;;4950761;28;20293;-75
2023/05/01 12:03:47;;;;;;;;;;;23.50;45.10;;;;;;4946544;28;19911;-70
2023/05/01 12:06:13;;;;;;;;;;;23.20;45.60;;;;;;4960430;28;19911;-69
2023/05/01 12:08:44;;;;;;;;;;;23.10;44.40;;;;;;4948286;28;19973;-68
2023/05/01 12:11:10;;;;;;;;;;;22.40;45.10;;;;;;4949531;28;19971;-68
2023/05/01 12:13:37;;;;;;;;;;;22.90;44.50;;;;;;4948465;28;19922;-69
2023/05/01 12:16:03;;;;;;;;;;;23.40;44.10;;;;;;4946191;28;19966;-69
2023/05/01 12:18:29;;;;;;;;;;;23.80;45.30;;;;;;4946830;28;20374;-69
2023/05/01 12:20:55;;;;;;;;;;;23.70;45.00;;;;;;4950512;28;20005;-69
2023/05/01 12:23:30;;;;;;;;;;;23.50;44.80;;;;;;4964211;28;19918;-70
2023/05/01 12:25:57;;;;;;;;;;;23.80;42.90;;;;;;4962977;28;19918;-70
2023/05/01 12:28:23;;;;;;;;;;;23.50;43.00;;;;;;4963613;28;19921;-69
2023/05/01 12:30:49;;;;;;;;;;;24.40;42.40;;;;;;4947828;28;19958;-69
2023/05/01 12:33:15;;;;;;;;;;;24.10;43.30;;;;;;4947596;28;19911;-69
2023/05/01 12:35:44;;;;;;;;;;;23.70;42.30;;;;;;4945172;28;19918;-70
2023/05/01 12:38:11;;;;;;;;;;;23.70;43.40;;;;;;4945764;28;20356;-69
2023/05/01 12:40:37;;;;;;;;;;;23.40;43.90;;;;;;4942830;28;19915;-71
2023/05/01 12:43:03;;;;;;;;;;;23.90;43.60;;;;;;4944328;28;19917;-70
2023/05/01 12:45:29;;;;;;;;;;;24.70;42.50;;;;;;4943360;28;19914;-70
2023/05/01 12:47:55;;;;;;;;;;;25.90;41.10;;;;;;4947976;28;20010;-71
2023/05/01 12:50:20;;;;;;;;;;;26.00;40.60;;;;;;4944682;28;20390;-71
2023/05/01 12:52:46;;;;;;;;;;;25.80;40.00;;;;;;4944536;28;24123;-71
2023/05/01 12:55:12;;;;;;;;;;;25.80;40.70;;;;;;4941707;28;19929;-71
2023/05/01 12:57:52;;;;;;;;;;;26.30;40.10;;;;;;4944903;28;20647;-71
2023/05/01 13:00:18;;;;;;;;;;;25.70;40.70;;;;;;4941326;28;19914;-72
2023/05/01 13:02:44;;;;;;;;;;;26.30;40.10;;;;;;4947945;28;19920;-71
2023/05/01 13:05:10;;;;;;;;;;;27.40;38.60;;;;;;4947932;28;19957;-70
2023/05/01 13:07:37;;;;;;;;;;;26.30;39.00;;;;;;4947200;28;19973;-70
2023/05/01 13:10:04;;;;;;;;;;;25.00;39.60;;;;;;4936270;28;19966;-70
2023/05/01 13:12:31;;;;;;;;;;;25.50;39.80;;;;;;4953430;28;19961;-70
2023/05/01 13:14:57;;;;;;;;;;;25.50;39.80;;;;;;4952328;28;20058;-71
2023/05/01 13:17:26;;;;;;;;;;;25.60;40.20;;;;;;4946153;28;19919;-74
2023/05/01 13:19:56;;;;;;;;;;;25.50;40.10;;;;;;4947653;28;19949;-71
2023/05/01 13:22:35;;;;;;;;;;;25.70;38.60;;;;;;4947507;28;19915;-71
2023/05/01 13:25:02;;;;;;;;;;;25.90;38.40;;;;;;4950600;28;20169;-77
2023/05/01 13:27:28;;;;;;;;;;;26.20;38.30;;;;;;4947960;28;19918;-70
2023/05/01 13:29:54;;;;;;;;;;;25.50;39.70;;;;;;4949637;28;20313;-71
2023/05/01 13:32:20;;;;;;;;;;;25.60;39.00;;;;;;4948218;28;20394;-71
2023/05/01 13:34:46;;;;;;;;;;;25.90;38.50;;;;;;4954188;28;19956;-72
2023/05/01 13:37:12;;;;;;;;;;;26.10;38.10;;;;;;4953566;28;19913;-74
2023/05/01 13:39:42;;;;;;;;;;;26.00;37.80;;;;;;4954467;28;19974;-71
2023/05/01 13:42:08;;;;;;;;;;;24.90;39.10;;;;;;4954956;28;20376;-74
2023/05/01 13:44:42;;;;;;;;;;;25.00;39.40;;;;;;4954921;28;19907;-71
2023/05/01 13:47:07;;;;;;;;;;;25.60;39.40;;;;;;4952031;28;19917;-75
2023/05/01 13:49:33;;;;;;;;;;;25.00;39.30;;;;;;4953922;28;20286;-72
2023/05/01 13:51:59;;;;;;;;;;;24.60;39.80;;;;;;4953021;28;19914;-70
2023/05/01 13:54:24;;;;;;;;;;;24.10;40.20;;;;;;4950627;28;20063;-71
2023/05/01 13:56:51;;;;;;;;;;;23.30;40.40;;;;;;4953065;28;19910;-74
2023/05/01 13:59:17;;;;;;;;;;;23.40;41.40;;;;;;4954195;28;19933;-71
2023/05/01 14:01:46;;;;;;;;;;;24.00;40.80;;;;;;4949118;28;19910;-70
2023/05/01 14:04:20;;;;;;;;;;;24.00;40.40;;;;;;4948522;28;20120;-71
2023/05/01 14:06:47;;;;;;;;;;;23.70;40.90;;;;;;4951676;28;19918;-70
2023/05/01 14:09:16;;;;;;;;;;;23.40;42.20;;;;;;4952392;28;19910;-70
2023/05/01 14:11:45;;;;;;;;;;;22.90;43.40;;;;;;4949900;28;20177;-71
2023/05/01 14:14:13;;;;;;;;;;;22.60;44.10;;;;;;4948398;28;19969;-72
2023/05/01 14:16:39;;;;;;;;;;;22.80;44.40;;;;;;4949886;28;20374;-70
2023/05/01 14:19:05;;;;;;;;;;;22.40;45.80;;;;;;4951614;28;19919;-70
2023/05/01 14:21:36;;;;;;;;;;;22.20;45.90;;;;;;4949862;28;19910;-70
2023/05/01 14:24:03;;;;;;;;;;;22.00;46.80;;;;;;4949994;28;19915;-70
2023/05/01 14:26:31;;;;;;;;;;;21.90;46.50;;;;;;4951785;28;19964;-70